KBXK

Buckeye Municipal Airport

Buckeye, Arizona, USA
METAR KBXK 170735Z AUTO 05003KT 10SM BKN120 06/M12 A2978 RMK AO1
Observed Flight Rules
Dec-17 @ 07:35 UTC (39 minutes ago) Visual Flight Rules
Wind Visibility Clouds
50° at 3 knots 10 miles
  • Broken at 12,000' AGL
Temperatures Readings
Current 6°C / 43°F
Dewpoint -12°C / 10°F
Humidity 26%
Altimeter 29.78" Hg
Pressure 1008 hPa
Elevation 315
METAR KBXK 170735Z AUTO 05003KT 10SM BKN120 06/M12 A2978 RMK AO1
Observed Flight Rules
Dec-17 @ 07:35 UTC
(39 minutes ago)
VFR
Wind Visibility
50° at 3 knots 10 miles
Clouds
  • Broken at 12,000' AGL
Temperature Dewpoint
6°C / 43°F -12°C / 10°F
Humidity Altimeter Pressure
26% 29.78" Hg 1008 hPa